MSC Suez — HPMS — position and weather

sailwx.info

Track history (hours):
 
Tides and Currents Weather Stations Pressure Air Temp Water Temp Dewpoint Dewpoint Depression Visibility Wind Speed Wind Dir Waves Ship Positions

MSC Suez

Last reported at 2017-Jan-19 08:33 UTC. Time now 2017-Jan-19 21:32 UTC.
Position N 49°26' W 004°28'.

Length 237 m; draft 9.6 m.

Type: Ship. MMSI: 355289000.

Date/timePositionNaut miles runAvg speedWind from/ knotsBaromVisibWave heightAir tempDewpointWater temp
2017-Jan-19 08:33N 49°26' W 004°28'1816.8
2017-Jan-19 07:27N 49°34' W 004°03'1617.5
2017-Jan-19 06:33N 49°42' W 003°41'1717.3
2017-Jan-19 05:33N 49°50' W 003°18'1817.7
2017-Jan-19 04:33N 49°58' W 002°53'3416.6
2017-Jan-19 02:31N 50°02' W 002°01'1414.8
2017-Jan-19 01:33N 49°57' W 001°40'1414.1
2017-Jan-19 00:33N 49°51' W 001°20'1313.4
2017-Jan-18 23:34N 49°46' W 001°01'1514.8
2017-Jan-18 22:34N 49°40' W 000°40'1616.3
2017-Jan-18 21:33N 49°34' W 000°17'1414.3
2017-Jan-18 20:33N 49°29' E 000°04'3 3.0
2017-Jan-18 19:32N 49°28' E 000°08'0 0.0
2017-Jan-18 18:32N 49°28' E 000°08'0 0.0
2017-Jan-18 17:32N 49°28' E 000°08'0 0.0
2017-Jan-18 16:32N 49°28' E 000°08'0 0.0
2017-Jan-18 15:32N 49°28' E 000°08'0 0.0
2017-Jan-18 14:32N 49°28' E 000°08'0 0.0
2017-Jan-18 13:32N 49°28' E 000°08'0 0.0
2017-Jan-18 12:32N 49°28' E 000°08'0 0.0
2017-Jan-18 11:34N 49°28' E 000°08'10 9.7
2017-Jan-18 10:33N 49°31' W 000°06'5 4.5
2017-Jan-18 09:33N 49°34' W 000°11'8 8.5
2017-Jan-18 08:33N 49°43' W 000°11'9 8.8
2017-Jan-18 07:33N 49°51' W 000°11'9 9.4
2017-Jan-18 06:33N 50°01' W 000°12'1211.5
2017-Jan-18 05:33N 50°12' W 000°11'1211.8
2017-Jan-18 04:33N 50°24' W 000°08'1414.4
2017-Jan-18 03:34N 50°31' E 000°12'1716.6
2017-Jan-18 02:33N 50°37' E 000°36'1616.0
2017-Jan-18 01:34N 50°46' E 000°56'1716.6
2017-Jan-18 00:33N 50°58' E 001°16'1919.0
2017-Jan-17 23:34N 51°11' E 001°37'1918.7
2017-Jan-17 22:33N 51°29' E 001°45'1717.1
2017-Jan-17 21:34N 51°46' E 001°44'1312.8
2017-Jan-17 20:34N 51°56' E 001°31'8 7.7
2017-Jan-17 19:32N 51°58' E 001°18'0 0.0
2017-Jan-17 18:32N 51°58' E 001°18'0 0.0
2017-Jan-17 17:32N 51°58' E 001°18'0 0.0
2017-Jan-17 16:32N 51°58' E 001°18'0 0.0
2017-Jan-17 15:32N 51°58' E 001°18'0 0.0
2017-Jan-17 14:32N 51°58' E 001°18'0 0.0
2017-Jan-17 13:32N 51°58' E 001°18'0 0.0
2017-Jan-17 12:32N 51°58' E 001°18'0 0.0
2017-Jan-17 11:32N 51°58' E 001°18'0 0.0
2017-Jan-17 10:32N 51°58' E 001°18'0 0.0
2017-Jan-17 09:32N 51°58' E 001°18'0 0.0
2017-Jan-17 08:32N 51°58' E 001°18'0 0.0
2017-Jan-17 07:32N 51°58' E 001°18'0 0.0
2017-Jan-17 06:32N 51°58' E 001°18'0 0.0
2017-Jan-17 05:32N 51°58' E 001°18'0 0.0
2017-Jan-17 04:32N 51°58' E 001°18'0 0.0
2017-Jan-17 03:32N 51°58' E 001°18'0 0.0
2017-Jan-17 02:32N 51°58' E 001°18'0 0.0
2017-Jan-17 01:32N 51°58' E 001°18'0 0.0
2017-Jan-17 00:32N 51°58' E 001°18'0 0.0
2017-Jan-16 23:32N 51°58' E 001°18'0 0.0
2017-Jan-16 22:32N 51°58' E 001°18'0 0.0
2017-Jan-16 21:32N 51°58' E 001°18'0 0.0
2017-Jan-16 20:32N 51°58' E 001°18'0 0.0
2017-Jan-16 19:32N 51°58' E 001°18'3 3.3
2017-Jan-16 18:33N 51°56' E 001°22'1111.4
2017-Jan-16 17:34N 51°53' E 001°40'2 2.0
2017-Jan-16 16:31N 51°54' E 001°42'0 0.0
2017-Jan-16 15:31N 51°54' E 001°42'0 0.2
2017-Jan-16 14:31N 51°54' E 001°42'0 0.1
2017-Jan-16 13:31N 51°54' E 001°42'0 0.0
2017-Jan-16 12:31N 51°54' E 001°42'0 0.0
2017-Jan-16 11:31N 51°54' E 001°42'0 0.0
2017-Jan-16 10:31N 51°54' E 001°42'0 0.0
2017-Jan-16 09:34N 51°54' E 001°42'0 0.1
2017-Jan-16 08:31N 51°54' E 001°42'0 0.2
2017-Jan-16 07:31N 51°54' E 001°42'0 0.0
2017-Jan-16 06:31N 51°54' E 001°42'0 0.0
2017-Jan-16 05:31N 51°54' E 001°42'0 0.0
2017-Jan-16 04:31N 51°54' E 001°42'0 0.0
2017-Jan-16 03:31N 51°54' E 001°42'0 0.1
2017-Jan-16 02:31N 51°54' E 001°42'0 0.2
2017-Jan-16 01:31N 51°54' E 001°42'0 0.0
2017-Jan-16 00:31N 51°54' E 001°42'0 0.0
2017-Jan-15 23:31N 51°54' E 001°42'0 0.0
2017-Jan-15 22:31N 51°54' E 001°42'0 0.0
2017-Jan-15 21:31N 51°54' E 001°42'0 0.0
2017-Jan-15 20:31N 51°54' E 001°42'0 0.2
2017-Jan-15 19:31N 51°54' E 001°42'0 0.1
2017-Jan-15 18:31N 51°54' E 001°42'0 0.0
2017-Jan-15 17:31N 51°54' E 001°42'0 0.0
2017-Jan-15 16:31N 51°54' E 001°42'0 0.0
2017-Jan-15 15:31N 51°54' E 001°42'0 0.0
2017-Jan-15 14:31N 51°54' E 001°42'0 0.1
2017-Jan-15 13:31N 51°54' E 001°42'0 0.1
2017-Jan-15 12:31N 51°54' E 001°42'0 0.0
2017-Jan-15 11:31N 51°54' E 001°42'0 0.0
2017-Jan-15 10:31N 51°54' E 001°42'0 0.0
2017-Jan-15 09:31N 51°54' E 001°42'0 0.2
2017-Jan-15 08:31N 51°54' E 001°42'0 0.1
2017-Jan-15 07:31N 51°54' E 001°42'0 0.1
2017-Jan-15 06:28N 51°54' E 001°42'0 0.0
2017-Jan-15 05:31N 51°54' E 001°42'0 0.0
2017-Jan-15 04:31N 51°54' E 001°42'0 0.0
2017-Jan-15 03:31N 51°54' E 001°42'0 0.1
2017-Jan-15 02:31N 51°54' E 001°42'0 0.3
2017-Jan-15 01:33N 51°54' E 001°42'10 9.9
2017-Jan-15 00:33N 51°45' E 001°48'1514.7
2017-Jan-14 23:34N 51°31' E 001°54'1515.4
2017-Jan-14 22:34N 51°21' E 002°13'1716.9
2017-Jan-14 21:33N 51°23' E 002°40'1515.0
2017-Jan-14 20:33N 51°24' E 003°03'1918.8
2017-Jan-14 19:33N 51°25' E 003°33'1010.3
2017-Jan-14 18:33N 51°21' E 003°48'1212.5
2017-Jan-14 17:33N 51°22' E 004°08'7 6.6
2017-Jan-14 16:33N 51°18' E 004°16'0 0.0
2017-Jan-14 15:27N 51°18' E 004°16'0 0.0
2017-Jan-14 14:33N 51°18' E 004°16'0 0.0
2017-Jan-14 13:34N 51°18' E 004°16'0 0.0
2017-Jan-14 12:30N 51°18' E 004°16'0 0.0
2017-Jan-14 11:30N 51°18' E 004°16'0 0.0
2017-Jan-14 10:33N 51°18' E 004°16'0 0.0
2017-Jan-14 09:33N 51°18' E 004°16'0 0.0
2017-Jan-14 08:33N 51°18' E 004°16'0 0.0
2017-Jan-14 07:30N 51°18' E 004°16'0 0.0
2017-Jan-14 06:33N 51°18' E 004°16'0 0.0
2017-Jan-14 05:34N 51°18' E 004°16'0 0.0
2017-Jan-14 04:33N 51°18' E 004°16'0 0.0
2017-Jan-14 03:33N 51°18' E 004°16'0 0.0
2017-Jan-13 23:34N 51°18' E 004°16'0 0.0
2017-Jan-13 22:24N 51°18' E 004°16'0 0.0
2017-Jan-13 21:30N 51°18' E 004°16'0 0.0
2017-Jan-13 20:33N 51°18' E 004°16'0 0.0
2017-Jan-13 19:30N 51°18' E 004°16'0 0.0
2017-Jan-13 18:33N 51°18' E 004°16'0 0.0
2017-Jan-13 17:33N 51°18' E 004°16'0 0.0
2017-Jan-13 16:24N 51°18' E 004°16'0 0.0
2017-Jan-13 15:31N 51°18' E 004°16'3 2.9
2017-Jan-13 14:30N 51°21' E 004°17'0 0.0
2017-Jan-13 13:33N 51°21' E 004°17'2 1.9
2017-Jan-13 12:30N 51°19' E 004°20'0 0.0
2017-Jan-13 11:30N 51°19' E 004°20'0 0.0
2017-Jan-13 10:33N 51°19' E 004°20'0 0.0
2017-Jan-13 09:30N 51°19' E 004°20'0 0.0
2017-Jan-13 08:33N 51°19' E 004°20'0 0.0
2017-Jan-13 07:33N 51°19' E 004°20'0 0.0
2017-Jan-13 06:30N 51°19' E 004°20'0 0.0
2017-Jan-13 05:33N 51°19' E 004°20'0 0.0
2017-Jan-13 04:30N 51°19' E 004°20'0 0.0
2017-Jan-13 03:33N 51°19' E 004°20'0 0.0
2017-Jan-13 02:33N 51°19' E 004°20'0 0.0
2017-Jan-13 01:33N 51°19' E 004°20'0 0.0
2017-Jan-13 00:30N 51°19' E 004°20'0 0.0
2017-Jan-12 23:33N 51°19' E 004°20'0 0.0
2017-Jan-12 22:30N 51°19' E 004°20'0 0.5
2017-Jan-12 21:33N 51°19' E 004°19'2 1.8
2017-Jan-12 20:34N 51°21' E 004°17'0 0.3
2017-Jan-12 19:33N 51°21' E 004°17'8 8.0
2017-Jan-12 18:34N 51°22' E 004°04'8 8.0
2017-Jan-12 17:33N 51°21' E 003°51'1111.2
2017-Jan-12 16:33N 51°26' E 003°36'1111.0
2017-Jan-12 15:34N 51°24' E 003°18'1616.2
2017-Jan-12 14:34N 51°22' E 002°52'1110.9
2017-Jan-12 13:33N 51°24' E 002°35'1 0.9
2017-Jan-12 12:31N 51°25' E 002°36'0 0.0
2017-Jan-12 11:31N 51°25' E 002°36'0 0.1
2017-Jan-12 10:31N 51°25' E 002°36'0 0.2
2017-Jan-12 09:31N 51°24' E 002°36'0 0.1
2017-Jan-12 08:31N 51°24' E 002°36'0 0.0
2017-Jan-12 07:31N 51°24' E 002°36'0 0.2
2017-Jan-12 06:31N 51°24' E 002°36'0 0.1
2017-Jan-12 05:31N 51°24' E 002°36'0 0.1
2017-Jan-12 04:31N 51°25' E 002°36'0 0.0
2017-Jan-12 03:31N 51°25' E 002°36'0 0.0
2017-Jan-12 02:31N 51°25' E 002°36'0 0.0
2017-Jan-12 01:31N 51°25' E 002°36'0 0.0
2017-Jan-12 00:31N 51°25' E 002°36'0 0.0
2017-Jan-11 23:31N 51°24' E 002°36'0 0.0
2017-Jan-11 22:31N 51°24' E 002°36'0 0.1
2017-Jan-11 21:32N 51°24' E 002°36'0 0.1
2017-Jan-11 20:31N 51°24' E 002°36'0 0.0
2017-Jan-11 19:31N 51°24' E 002°36'0 0.0
2017-Jan-11 18:31N 51°24' E 002°36'0 0.1
2017-Jan-11 17:31N 51°24' E 002°36'0 0.1
2017-Jan-11 16:31N 51°24' E 002°36'0 0.1
2017-Jan-11 15:31N 51°24' E 002°36'0 0.0
2017-Jan-11 14:25N 51°24' E 002°36'0 0.1
2017-Jan-11 13:31N 51°25' E 002°36'0 0.0
2017-Jan-11 12:31N 51°25' E 002°36'1 0.6
2017-Jan-11 11:33N 51°24' E 002°35'1312.8
2017-Jan-11 10:33N 51°18' E 002°17'1514.9
2017-Jan-11 09:33N 51°11' E 001°56'1414.2
2017-Jan-11 08:33N 51°02' E 001°38'1212.4
2017-Jan-11 07:33N 50°53' E 001°26'1111.3
2017-Jan-11 06:33N 50°42' E 001°21'1211.8
2017-Jan-11 05:32N 50°34' E 001°06'1211.4
2017-Jan-11 04:28N 50°28' E 000°50'1611.6
2017-Jan-11 03:06N 50°23' E 000°26'611.3
2017-Jan-11 02:34N 50°21' E 000°17'1111.0
2017-Jan-11 01:33N 50°17' E 000°01'1010.1
2017-Jan-11 00:33N 50°10' W 000°12'1212.0
2017-Jan-10 23:33N 49°58' W 000°11'1212.3
2017-Jan-10 22:33N 49°46' W 000°12'1212.4
2017-Jan-10 21:33N 49°34' W 000°11'1010.1
2017-Jan-10 20:34N 49°30' E 000°03'4 3.9
2017-Jan-10 19:32N 49°28' E 000°09'0 0.0
2017-Jan-10 18:32N 49°28' E 000°09'0 0.0
2017-Jan-10 17:32N 49°28' E 000°09'0 0.0
2017-Jan-10 16:32N 49°28' E 000°09'0 0.0
2017-Jan-10 15:32N 49°28' E 000°09'0 0.0
2017-Jan-10 14:32N 49°28' E 000°09'0 0.0
2017-Jan-10 13:32N 49°28' E 000°09'0 0.0
2017-Jan-10 12:32N 49°28' E 000°09'0 0.1
2017-Jan-10 11:33N 49°28' E 000°09'9 9.5
2017-Jan-10 10:34N 49°31' W 000°05'7 6.7
2017-Jan-10 09:33N 49°36' W 000°11'1111.3
2017-Jan-10 08:33N 49°48' W 000°12'1716.5
2017-Jan-10 07:33N 50°04' W 000°11'1615.8
2017-Jan-10 06:33N 50°20' W 000°09'1413.6
2017-Jan-10 05:33N 50°29' E 000°07'1515.0
2017-Jan-10 04:33N 50°34' E 000°29'1916.3
2017-Jan-10 03:24N 50°43' E 000°55'1518.0
2017-Jan-10 02:33N 50°52' E 001°14'1817.7
2017-Jan-10 01:33N 51°05' E 001°33'1616.2
2017-Jan-10 00:33N 51°18' E 001°49'1615.8
2017-Jan-09 23:34N 51°32' E 002°01'1615.5
2017-Jan-09 22:31N 51°44' E 002°19'  
Track history (hours):
 
Tides and Currents Weather Stations Pressure Air Temp Water Temp Dewpoint Dewpoint Depression Visibility Wind Speed Wind Dir Waves Ship Positions

MSC Suez

Last reported at 2017-Jan-19 08:33 UTC. Time now 2017-Jan-19 21:32 UTC.
Position N 49°26' W 004°28'.

Length 237 m; draft 9.6 m.

Type: Ship. MMSI: 355289000.

Date/timePositionNaut miles runAvg speedWind from/ knotsBaromVisibWave heightAir tempDewpointWater temp
2017-Jan-19 08:33N 49°26' W 004°28'1816.8
2017-Jan-19 07:27N 49°34' W 004°03'1617.5
2017-Jan-19 06:33N 49°42' W 003°41'1717.3
2017-Jan-19 05:33N 49°50' W 003°18'1817.7
2017-Jan-19 04:33N 49°58' W 002°53'3416.6
2017-Jan-19 02:31N 50°02' W 002°01'1414.8
2017-Jan-19 01:33N 49°57' W 001°40'1414.1
2017-Jan-19 00:33N 49°51' W 001°20'1313.4
2017-Jan-18 23:34N 49°46' W 001°01'1514.8
2017-Jan-18 22:34N 49°40' W 000°40'1616.3
2017-Jan-18 21:33N 49°34' W 000°17'1414.3
2017-Jan-18 20:33N 49°29' E 000°04'3 3.0
2017-Jan-18 19:32N 49°28' E 000°08'0 0.0
2017-Jan-18 18:32N 49°28' E 000°08'0 0.0
2017-Jan-18 17:32N 49°28' E 000°08'0 0.0
2017-Jan-18 16:32N 49°28' E 000°08'0 0.0
2017-Jan-18 15:32N 49°28' E 000°08'0 0.0
2017-Jan-18 14:32N 49°28' E 000°08'0 0.0
2017-Jan-18 13:32N 49°28' E 000°08'0 0.0
2017-Jan-18 12:32N 49°28' E 000°08'0 0.0
2017-Jan-18 11:34N 49°28' E 000°08'10 9.7
2017-Jan-18 10:33N 49°31' W 000°06'5 4.5
2017-Jan-18 09:33N 49°34' W 000°11'8 8.5
2017-Jan-18 08:33N 49°43' W 000°11'9 8.8
2017-Jan-18 07:33N 49°51' W 000°11'9 9.4
2017-Jan-18 06:33N 50°01' W 000°12'1211.5
2017-Jan-18 05:33N 50°12' W 000°11'1211.8
2017-Jan-18 04:33N 50°24' W 000°08'1414.4
2017-Jan-18 03:34N 50°31' E 000°12'1716.6
2017-Jan-18 02:33N 50°37' E 000°36'1616.0
2017-Jan-18 01:34N 50°46' E 000°56'1716.6
2017-Jan-18 00:33N 50°58' E 001°16'1919.0
2017-Jan-17 23:34N 51°11' E 001°37'1918.7
2017-Jan-17 22:33N 51°29' E 001°45'1717.1
2017-Jan-17 21:34N 51°46' E 001°44'1312.8
2017-Jan-17 20:34N 51°56' E 001°31'8 7.7
2017-Jan-17 19:32N 51°58' E 001°18'0 0.0
2017-Jan-17 18:32N 51°58' E 001°18'0 0.0
2017-Jan-17 17:32N 51°58' E 001°18'0 0.0
2017-Jan-17 16:32N 51°58' E 001°18'0 0.0
2017-Jan-17 15:32N 51°58' E 001°18'0 0.0
2017-Jan-17 14:32N 51°58' E 001°18'0 0.0
2017-Jan-17 13:32N 51°58' E 001°18'0 0.0
2017-Jan-17 12:32N 51°58' E 001°18'0 0.0
2017-Jan-17 11:32N 51°58' E 001°18'0 0.0
2017-Jan-17 10:32N 51°58' E 001°18'0 0.0
2017-Jan-17 09:32N 51°58' E 001°18'0 0.0
2017-Jan-17 08:32N 51°58' E 001°18'0 0.0
2017-Jan-17 07:32N 51°58' E 001°18'0 0.0
2017-Jan-17 06:32N 51°58' E 001°18'0 0.0
2017-Jan-17 05:32N 51°58' E 001°18'0 0.0
2017-Jan-17 04:32N 51°58' E 001°18'0 0.0
2017-Jan-17 03:32N 51°58' E 001°18'0 0.0
2017-Jan-17 02:32N 51°58' E 001°18'0 0.0
2017-Jan-17 01:32N 51°58' E 001°18'0 0.0
2017-Jan-17 00:32N 51°58' E 001°18'0 0.0
2017-Jan-16 23:32N 51°58' E 001°18'0 0.0
2017-Jan-16 22:32N 51°58' E 001°18'0 0.0
2017-Jan-16 21:32N 51°58' E 001°18'0 0.0
2017-Jan-16 20:32N 51°58' E 001°18'0 0.0
2017-Jan-16 19:32N 51°58' E 001°18'3 3.3
2017-Jan-16 18:33N 51°56' E 001°22'1111.4
2017-Jan-16 17:34N 51°53' E 001°40'2 2.0
2017-Jan-16 16:31N 51°54' E 001°42'0 0.0
2017-Jan-16 15:31N 51°54' E 001°42'0 0.2
2017-Jan-16 14:31N 51°54' E 001°42'0 0.1
2017-Jan-16 13:31N 51°54' E 001°42'0 0.0
2017-Jan-16 12:31N 51°54' E 001°42'0 0.0
2017-Jan-16 11:31N 51°54' E 001°42'0 0.0
2017-Jan-16 10:31N 51°54' E 001°42'0 0.0
2017-Jan-16 09:34N 51°54' E 001°42'0 0.1
2017-Jan-16 08:31N 51°54' E 001°42'0 0.2
2017-Jan-16 07:31N 51°54' E 001°42'0 0.0
2017-Jan-16 06:31N 51°54' E 001°42'0 0.0
2017-Jan-16 05:31N 51°54' E 001°42'0 0.0
2017-Jan-16 04:31N 51°54' E 001°42'0 0.0
2017-Jan-16 03:31N 51°54' E 001°42'0 0.1
2017-Jan-16 02:31N 51°54' E 001°42'0 0.2
2017-Jan-16 01:31N 51°54' E 001°42'0 0.0
2017-Jan-16 00:31N 51°54' E 001°42'0 0.0
2017-Jan-15 23:31N 51°54' E 001°42'0 0.0
2017-Jan-15 22:31N 51°54' E 001°42'0 0.0
2017-Jan-15 21:31N 51°54' E 001°42'0 0.0
2017-Jan-15 20:31N 51°54' E 001°42'0 0.2
2017-Jan-15 19:31N 51°54' E 001°42'0 0.1
2017-Jan-15 18:31N 51°54' E 001°42'0 0.0
2017-Jan-15 17:31N 51°54' E 001°42'0 0.0
2017-Jan-15 16:31N 51°54' E 001°42'0 0.0
2017-Jan-15 15:31N 51°54' E 001°42'0 0.0
2017-Jan-15 14:31N 51°54' E 001°42'0 0.1
2017-Jan-15 13:31N 51°54' E 001°42'0 0.1
2017-Jan-15 12:31N 51°54' E 001°42'0 0.0
2017-Jan-15 11:31N 51°54' E 001°42'0 0.0
2017-Jan-15 10:31N 51°54' E 001°42'0 0.0
2017-Jan-15 09:31N 51°54' E 001°42'0 0.2
2017-Jan-15 08:31N 51°54' E 001°42'0 0.1
2017-Jan-15 07:31N 51°54' E 001°42'0 0.1
2017-Jan-15 06:28N 51°54' E 001°42'0 0.0
2017-Jan-15 05:31N 51°54' E 001°42'0 0.0
2017-Jan-15 04:31N 51°54' E 001°42'0 0.0
2017-Jan-15 03:31N 51°54' E 001°42'0 0.1
2017-Jan-15 02:31N 51°54' E 001°42'0 0.3
2017-Jan-15 01:33N 51°54' E 001°42'10 9.9
2017-Jan-15 00:33N 51°45' E 001°48'1514.7
2017-Jan-14 23:34N 51°31' E 001°54'1515.4
2017-Jan-14 22:34N 51°21' E 002°13'1716.9
2017-Jan-14 21:33N 51°23' E 002°40'1515.0
2017-Jan-14 20:33N 51°24' E 003°03'1918.8
2017-Jan-14 19:33N 51°25' E 003°33'1010.3
2017-Jan-14 18:33N 51°21' E 003°48'1212.5
2017-Jan-14 17:33N 51°22' E 004°08'7 6.6
2017-Jan-14 16:33N 51°18' E 004°16'0 0.0
2017-Jan-14 15:27N 51°18' E 004°16'0 0.0
2017-Jan-14 14:33N 51°18' E 004°16'0 0.0
2017-Jan-14 13:34N 51°18' E 004°16'0 0.0
2017-Jan-14 12:30N 51°18' E 004°16'0 0.0
2017-Jan-14 11:30N 51°18' E 004°16'0 0.0
2017-Jan-14 10:33N 51°18' E 004°16'0 0.0
2017-Jan-14 09:33N 51°18' E 004°16'0 0.0
2017-Jan-14 08:33N 51°18' E 004°16'0 0.0
2017-Jan-14 07:30N 51°18' E 004°16'0 0.0
2017-Jan-14 06:33N 51°18' E 004°16'0 0.0
2017-Jan-14 05:34N 51°18' E 004°16'0 0.0
2017-Jan-14 04:33N 51°18' E 004°16'0 0.0
2017-Jan-14 03:33N 51°18' E 004°16'0 0.0
2017-Jan-13 23:34N 51°18' E 004°16'0 0.0
2017-Jan-13 22:24N 51°18' E 004°16'0 0.0
2017-Jan-13 21:30N 51°18' E 004°16'0 0.0
2017-Jan-13 20:33N 51°18' E 004°16'0 0.0
2017-Jan-13 19:30N 51°18' E 004°16'0 0.0
2017-Jan-13 18:33N 51°18' E 004°16'0 0.0
2017-Jan-13 17:33N 51°18' E 004°16'0 0.0
2017-Jan-13 16:24N 51°18' E 004°16'0 0.0
2017-Jan-13 15:31N 51°18' E 004°16'3 2.9
2017-Jan-13 14:30N 51°21' E 004°17'0 0.0
2017-Jan-13 13:33N 51°21' E 004°17'2 1.9
2017-Jan-13 12:30N 51°19' E 004°20'0 0.0
2017-Jan-13 11:30N 51°19' E 004°20'0 0.0
2017-Jan-13 10:33N 51°19' E 004°20'0 0.0
2017-Jan-13 09:30N 51°19' E 004°20'0 0.0
2017-Jan-13 08:33N 51°19' E 004°20'0 0.0
2017-Jan-13 07:33N 51°19' E 004°20'0 0.0
2017-Jan-13 06:30N 51°19' E 004°20'0 0.0
2017-Jan-13 05:33N 51°19' E 004°20'0 0.0
2017-Jan-13 04:30N 51°19' E 004°20'0 0.0
2017-Jan-13 03:33N 51°19' E 004°20'0 0.0
2017-Jan-13 02:33N 51°19' E 004°20'0 0.0
2017-Jan-13 01:33N 51°19' E 004°20'0 0.0
2017-Jan-13 00:30N 51°19' E 004°20'0 0.0
2017-Jan-12 23:33N 51°19' E 004°20'0 0.0
2017-Jan-12 22:30N 51°19' E 004°20'0 0.5
2017-Jan-12 21:33N 51°19' E 004°19'2 1.8
2017-Jan-12 20:34N 51°21' E 004°17'0 0.3
2017-Jan-12 19:33N 51°21' E 004°17'8 8.0
2017-Jan-12 18:34N 51°22' E 004°04'8 8.0
2017-Jan-12 17:33N 51°21' E 003°51'1111.2
2017-Jan-12 16:33N 51°26' E 003°36'1111.0
2017-Jan-12 15:34N 51°24' E 003°18'1616.2
2017-Jan-12 14:34N 51°22' E 002°52'1110.9
2017-Jan-12 13:33N 51°24' E 002°35'1 0.9
2017-Jan-12 12:31N 51°25' E 002°36'0 0.0
2017-Jan-12 11:31N 51°25' E 002°36'0 0.1
2017-Jan-12 10:31N 51°25' E 002°36'0 0.2
2017-Jan-12 09:31N 51°24' E 002°36'0 0.1
2017-Jan-12 08:31N 51°24' E 002°36'0 0.0
2017-Jan-12 07:31N 51°24' E 002°36'0 0.2
2017-Jan-12 06:31N 51°24' E 002°36'0 0.1
2017-Jan-12 05:31N 51°24' E 002°36'0 0.1
2017-Jan-12 04:31N 51°25' E 002°36'0 0.0
2017-Jan-12 03:31N 51°25' E 002°36'0 0.0
2017-Jan-12 02:31N 51°25' E 002°36'0 0.0
2017-Jan-12 01:31N 51°25' E 002°36'0 0.0
2017-Jan-12 00:31N 51°25' E 002°36'0 0.0
2017-Jan-11 23:31N 51°24' E 002°36'0 0.0
2017-Jan-11 22:31N 51°24' E 002°36'0 0.1
2017-Jan-11 21:32N 51°24' E 002°36'0 0.1
2017-Jan-11 20:31N 51°24' E 002°36'0 0.0
2017-Jan-11 19:31N 51°24' E 002°36'0 0.0
2017-Jan-11 18:31N 51°24' E 002°36'0 0.1
2017-Jan-11 17:31N 51°24' E 002°36'0 0.1
2017-Jan-11 16:31N 51°24' E 002°36'0 0.1
2017-Jan-11 15:31N 51°24' E 002°36'0 0.0
2017-Jan-11 14:25N 51°24' E 002°36'0 0.1
2017-Jan-11 13:31N 51°25' E 002°36'0 0.0
2017-Jan-11 12:31N 51°25' E 002°36'1 0.6
2017-Jan-11 11:33N 51°24' E 002°35'1312.8
2017-Jan-11 10:33N 51°18' E 002°17'1514.9
2017-Jan-11 09:33N 51°11' E 001°56'1414.2
2017-Jan-11 08:33N 51°02' E 001°38'1212.4
2017-Jan-11 07:33N 50°53' E 001°26'1111.3
2017-Jan-11 06:33N 50°42' E 001°21'1211.8
2017-Jan-11 05:32N 50°34' E 001°06'1211.4
2017-Jan-11 04:28N 50°28' E 000°50'1611.6
2017-Jan-11 03:06N 50°23' E 000°26'611.3
2017-Jan-11 02:34N 50°21' E 000°17'1111.0
2017-Jan-11 01:33N 50°17' E 000°01'1010.1
2017-Jan-11 00:33N 50°10' W 000°12'1212.0
2017-Jan-10 23:33N 49°58' W 000°11'1212.3
2017-Jan-10 22:33N 49°46' W 000°12'1212.4
2017-Jan-10 21:33N 49°34' W 000°11'1010.1
2017-Jan-10 20:34N 49°30' E 000°03'4 3.9
2017-Jan-10 19:32N 49°28' E 000°09'0 0.0
2017-Jan-10 18:32N 49°28' E 000°09'0 0.0
2017-Jan-10 17:32N 49°28' E 000°09'0 0.0
2017-Jan-10 16:32N 49°28' E 000°09'0 0.0
2017-Jan-10 15:32N 49°28' E 000°09'0 0.0
2017-Jan-10 14:32N 49°28' E 000°09'0 0.0
2017-Jan-10 13:32N 49°28' E 000°09'0 0.0
2017-Jan-10 12:32N 49°28' E 000°09'0 0.1
2017-Jan-10 11:33N 49°28' E 000°09'9 9.5
2017-Jan-10 10:34N 49°31' W 000°05'7 6.7
2017-Jan-10 09:33N 49°36' W 000°11'1111.3
2017-Jan-10 08:33N 49°48' W 000°12'1716.5
2017-Jan-10 07:33N 50°04' W 000°11'1615.8
2017-Jan-10 06:33N 50°20' W 000°09'1413.6
2017-Jan-10 05:33N 50°29' E 000°07'1515.0
2017-Jan-10 04:33N 50°34' E 000°29'1916.3
2017-Jan-10 03:24N 50°43' E 000°55'1518.0
2017-Jan-10 02:33N 50°52' E 001°14'1817.7
2017-Jan-10 01:33N 51°05' E 001°33'1616.2
2017-Jan-10 00:33N 51°18' E 001°49'1615.8
2017-Jan-09 23:34N 51°32' E 002°01'1615.5
2017-Jan-09 22:31N 51°44' E 002°19'  

Dump ship's entire track history